This is the latest recevied weather packets stored in our database for station/object EMGATE. If no packets are shown the sender has not sent any weather packets the latest 10 day(s).
| Time | Temp. | Humidity | Pressure | Rain* | Wind** | Luminosity | Snow |
|---|---|---|---|---|---|---|---|
| 1777740557 | 8.89° C | 57% | 1011.8 hPa | 0 mm | - | - | - |
| 1777739656 | 8.89° C | 57% | 1012 hPa | 0 mm | - | - | - |
| 1777738757 | 7.78° C | 59% | 1012.1 hPa | 0 mm | - | - | - |
| 1777737857 | 7.78° C | 57% | 1012.3 hPa | 0 mm | - | - | - |
| 1777736957 | 7.78° C | 57% | 1012.5 hPa | 0 mm | - | - | - |
| 1777736057 | 7.22° C | 60% | 1012.7 hPa | 0 mm | - | - | - |
| 1777735157 | 6.67° C | 60% | 1012.8 hPa | 0 mm | - | - | - |
| 1777734257 | 6.11° C | 58% | 1012.8 hPa | 0 mm | - | - | - |
| 1777733357 | 6.67° C | 56% | 1013 hPa | 0 mm | - | - | - |
| 1777732457 | 6.11° C | 58% | 1013.2 hPa | 0 mm | - | - | - |
| 1777731557 | 5.56° C | 62% | 1013.2 hPa | 0 mm | - | - | - |
| 1777730657 | 4.44° C | 64% | 1013.3 hPa | 0 mm | - | - | - |
| 1777729757 | 3.89° C | 66% | 1013.3 hPa | 0 mm | - | - | - |
| 1777728857 | 3.89° C | 65% | 1013.4 hPa | 0 mm | - | - | - |
| 1777727957 | 3.33° C | 66% | 1013.5 hPa | 0 mm | - | - | - |
| 1777727057 | 3.33° C | 66% | 1013.5 hPa | 0 mm | - | - | - |
| 1777726157 | 3.33° C | 67% | 1013.4 hPa | 0 mm | - | - | - |
| 1777725257 | 2.78° C | 68% | 1013.5 hPa | 0 mm | - | - | - |
| 1777724357 | 2.78° C | 69% | 1013.6 hPa | 0 mm | - | - | - |
| 1777723457 | 2.22° C | 69% | 1013.6 hPa | 0 mm | - | - | - |
| 1777722557 | 2.22° C | 70% | 1013.6 hPa | 0 mm | - | - | - |
| 1777721657 | 1.11° C | 72% | 1013.6 hPa | 0 mm | - | - | - |
| 1777720757 | 1.11° C | 72% | 1013.4 hPa | 0 mm | - | - | - |
| 1777719857 | 0.56° C | 73% | 1013.4 hPa | 0 mm | - | - | - |
| 1777718957 | 0° C | 73% | 1013.4 hPa | 0 mm | - | - | - |
* Rain latest hour (hover to see other rain measurements)
** Current wind speed in m/s (hover to see current wind gust speed)